Pagina principale
METAR-TAF:

METAR-TAF

Aeroporti :

Bahrain, Bahrain

Aeroporto Internazionale del Bahrein

latitudine: 26-16N, longitudine: 050-39E, altezza: 2 m

Osservazione

Il bollettino è stato emesso 30 minuti fa, alle 04:30 UTC
Vento 6 kt da sud, variando fra sud-est e sud/sud-ovest
Temperature 23°C
Umidità 57%
Pressione 1012 hPa
Visibilità 10 km o più
nessuna nube inferiore a 1500 m e nessun cumulonembo

METAR: OBBI 180430Z 17006KT 140V200 CAVOK 23/14 Q1012 NOSIG

Ora: 08:00 (05:00 UTC)

Previsione

Il bollettino è stato emesso 6 ore e 0 minuti fa, alle 23:00 UTC
Previsione valida dal 18 alle 00 UTC al 19 alle 06 UTC
Vento 11 kt da sud/sud-est
Visibilità 10 km o più
nessuna nube inferiore a 1500 m e nessun cumulonembo
Evoluzione graduale
dal 18 alle 12 UTC al 18 alle 14 UTC
Vento 13 kt da nord

TAF: OBBI 172300Z 1800/1906 15011KT CAVOK BECMG 1812/1814 35013KT

Osservazioni e previsioni meteorologiche di più di 4000 aeroporti (messaggi METAR e TAF).

Le stazioni disponibili sono rappresentate dai dischi gialli e rossi sulla carta.

Puntare il mouse per vedere il nome della stazione.

Clicca sopra per visualizzare le osservazioni e previsioni meteorologiche.

Per cambiare la mappa : fare clic sui pulsanti verdi con una croce nera per ingrandire, il pulsante verde con un trattino per diminuire, o sulla freccia verde per le mappe adiacenti.


METAR-TAF: